sensor_id;sensor_type;location;lat;lon;timestamp;P1;durP1;ratioP1;P2;durP2;ratioP2
72235;SDS011;60146;52.498;13.462;2023-02-28T00:02:11;4.90;;;1.73;;
72235;SDS011;60146;52.498;13.462;2023-02-28T00:04:37;8.67;;;2.20;;
72235;SDS011;60146;52.498;13.462;2023-02-28T00:07:02;7.97;;;2.30;;
72235;SDS011;60146;52.498;13.462;2023-02-28T00:09:27;5.07;;;1.70;;
72235;SDS011;60146;52.498;13.462;2023-02-28T00:11:52;8.17;;;2.10;;
72235;SDS011;60146;52.498;13.462;2023-02-28T00:14:17;5.00;;;2.20;;
72235;SDS011;60146;52.498;13.462;2023-02-28T00:16:43;4.50;;;2.27;;
72235;SDS011;60146;52.498;13.462;2023-02-28T00:19:08;7.97;;;2.30;;
72235;SDS011;60146;52.498;13.462;2023-02-28T00:21:33;5.50;;;2.33;;
72235;SDS011;60146;52.498;13.462;2023-02-28T00:23:59;5.13;;;2.00;;
72235;SDS011;60146;52.498;13.462;2023-02-28T00:26:24;5.27;;;2.03;;
72235;SDS011;60146;52.498;13.462;2023-02-28T00:28:51;5.67;;;2.03;;
72235;SDS011;60146;52.498;13.462;2023-02-28T00:31:17;3.40;;;1.80;;
72235;SDS011;60146;52.498;13.462;2023-02-28T00:33:42;6.83;;;2.00;;
72235;SDS011;60146;52.498;13.462;2023-02-28T00:36:09;6.40;;;2.00;;
72235;SDS011;60146;52.498;13.462;2023-02-28T00:38:34;8.67;;;2.20;;
72235;SDS011;60146;52.498;13.462;2023-02-28T00:41:00;4.27;;;2.07;;
72235;SDS011;60146;52.498;13.462;2023-02-28T00:43:29;9.03;;;2.40;;
72235;SDS011;60146;52.498;13.462;2023-02-28T00:45:54;6.00;;;1.97;;
72235;SDS011;60146;52.498;13.462;2023-02-28T00:48:20;7.40;;;2.20;;
72235;SDS011;60146;52.498;13.462;2023-02-28T00:50:47;4.43;;;2.10;;
72235;SDS011;60146;52.498;13.462;2023-02-28T00:53:13;8.97;;;2.37;;
72235;SDS011;60146;52.498;13.462;2023-02-28T00:55:38;6.27;;;2.27;;
72235;SDS011;60146;52.498;13.462;2023-02-28T00:58:04;5.80;;;2.13;;
72235;SDS011;60146;52.498;13.462;2023-02-28T01:00:29;8.87;;;2.60;;
72235;SDS011;60146;52.498;13.462;2023-02-28T01:02:54;6.70;;;2.50;;
72235;SDS011;60146;52.498;13.462;2023-02-28T01:05:19;5.33;;;2.37;;
72235;SDS011;60146;52.498;13.462;2023-02-28T01:07:44;8.10;;;2.23;;
72235;SDS011;60146;52.498;13.462;2023-02-28T01:10:10;6.67;;;2.23;;
72235;SDS011;60146;52.498;13.462;2023-02-28T01:12:35;5.90;;;2.33;;
72235;SDS011;60146;52.498;13.462;2023-02-28T01:15:01;6.70;;;2.67;;
72235;SDS011;60146;52.498;13.462;2023-02-28T01:17:26;5.07;;;2.47;;
72235;SDS011;60146;52.498;13.462;2023-02-28T01:19:52;5.77;;;2.40;;
72235;SDS011;60146;52.498;13.462;2023-02-28T01:22:18;10.13;;;2.77;;
72235;SDS011;60146;52.498;13.462;2023-02-28T01:24:43;5.97;;;2.47;;
72235;SDS011;60146;52.498;13.462;2023-02-28T01:27:11;5.83;;;2.77;;
72235;SDS011;60146;52.498;13.462;2023-02-28T01:32:14;8.47;;;2.40;;
72235;SDS011;60146;52.498;13.462;2023-02-28T01:34:39;6.27;;;2.60;;
72235;SDS011;60146;52.498;13.462;2023-02-28T01:37:04;7.97;;;2.70;;
72235;SDS011;60146;52.498;13.462;2023-02-28T01:39:29;6.83;;;2.83;;
72235;SDS011;60146;52.498;13.462;2023-02-28T01:41:55;4.70;;;2.03;;
72235;SDS011;60146;52.498;13.462;2023-02-28T01:47:04;8.10;;;2.77;;
72235;SDS011;60146;52.498;13.462;2023-02-28T01:49:30;8.53;;;3.00;;
72235;SDS011;60146;52.498;13.462;2023-02-28T01:51:55;9.07;;;2.80;;
72235;SDS011;60146;52.498;13.462;2023-02-28T01:54:26;8.33;;;3.23;;
72235;SDS011;60146;52.498;13.462;2023-02-28T01:56:53;6.88;;;2.60;;
72235;SDS011;60146;52.498;13.462;2023-02-28T01:59:22;7.93;;;3.40;;
72235;SDS011;60146;52.498;13.462;2023-02-28T02:01:48;7.53;;;3.00;;
72235;SDS011;60146;52.498;13.462;2023-02-28T02:04:13;5.97;;;2.70;;
72235;SDS011;60146;52.498;13.462;2023-02-28T02:06:40;6.27;;;2.60;;
72235;SDS011;60146;52.498;13.462;2023-02-28T02:09:07;6.03;;;2.83;;
72235;SDS011;60146;52.498;13.462;2023-02-28T02:11:32;6.13;;;2.57;;
72235;SDS011;60146;52.498;13.462;2023-02-28T02:14:02;7.87;;;3.10;;
72235;SDS011;60146;52.498;13.462;2023-02-28T02:16:38;7.93;;;2.83;;
72235;SDS011;60146;52.498;13.462;2023-02-28T02:27:27;7.37;;;3.13;;
72235;SDS011;60146;52.498;13.462;2023-02-28T02:34:59;11.80;;;3.30;;
72235;SDS011;60146;52.498;13.462;2023-02-28T03:34:04;8.97;;;3.17;;
72235;SDS011;60146;52.498;13.462;2023-02-28T03:58:44;7.80;;;3.10;;
72235;SDS011;60146;52.498;13.462;2023-02-28T04:01:47;9.50;;;3.50;;
72235;SDS011;60146;52.498;13.462;2023-02-28T04:04:13;11.83;;;3.40;;
72235;SDS011;60146;52.498;13.462;2023-02-28T04:06:39;8.00;;;3.27;;
72235;SDS011;60146;52.498;13.462;2023-02-28T04:09:05;9.07;;;3.50;;
72235;SDS011;60146;52.498;13.462;2023-02-28T04:11:37;8.77;;;3.70;;
72235;SDS011;60146;52.498;13.462;2023-02-28T04:14:03;9.40;;;3.23;;
72235;SDS011;60146;52.498;13.462;2023-02-28T04:16:29;9.57;;;3.30;;
72235;SDS011;60146;52.498;13.462;2023-02-28T04:18:55;10.10;;;3.27;;
72235;SDS011;60146;52.498;13.462;2023-02-28T04:21:27;7.40;;;3.43;;
72235;SDS011;60146;52.498;13.462;2023-02-28T04:23:58;8.50;;;3.40;;
72235;SDS011;60146;52.498;13.462;2023-02-28T04:26:27;11.63;;;3.50;;
72235;SDS011;60146;52.498;13.462;2023-02-28T04:28:53;7.87;;;2.83;;
72235;SDS011;60146;52.498;13.462;2023-02-28T04:31:24;11.13;;;3.60;;
72235;SDS011;60146;52.498;13.462;2023-02-28T04:33:52;10.00;;;3.63;;
72235;SDS011;60146;52.498;13.462;2023-02-28T04:36:18;10.60;;;3.97;;
72235;SDS011;60146;52.498;13.462;2023-02-28T04:38:43;11.17;;;4.00;;
72235;SDS011;60146;52.498;13.462;2023-02-28T04:41:09;10.53;;;4.13;;
72235;SDS011;60146;52.498;13.462;2023-02-28T04:43:34;9.30;;;4.07;;
72235;SDS011;60146;52.498;13.462;2023-02-28T04:46:01;9.10;;;3.47;;
72235;SDS011;60146;52.498;13.462;2023-02-28T04:48:27;11.97;;;3.87;;
72235;SDS011;60146;52.498;13.462;2023-02-28T04:50:53;14.73;;;4.50;;
72235;SDS011;60146;52.498;13.462;2023-02-28T04:53:18;8.67;;;3.50;;
72235;SDS011;60146;52.498;13.462;2023-02-28T04:55:43;9.73;;;3.43;;
72235;SDS011;60146;52.498;13.462;2023-02-28T04:58:09;9.77;;;4.10;;
72235;SDS011;60146;52.498;13.462;2023-02-28T05:00:34;9.17;;;3.83;;
72235;SDS011;60146;52.498;13.462;2023-02-28T05:02:59;9.67;;;4.00;;
72235;SDS011;60146;52.498;13.462;2023-02-28T05:05:24;11.23;;;4.20;;
72235;SDS011;60146;52.498;13.462;2023-02-28T05:07:50;11.87;;;3.93;;
72235;SDS011;60146;52.498;13.462;2023-02-28T05:10:15;8.13;;;3.80;;
72235;SDS011;60146;52.498;13.462;2023-02-28T05:12:40;10.57;;;3.87;;
72235;SDS011;60146;52.498;13.462;2023-02-28T05:15:05;7.50;;;3.60;;
72235;SDS011;60146;52.498;13.462;2023-02-28T05:17:31;13.57;;;4.23;;
72235;SDS011;60146;52.498;13.462;2023-02-28T05:19:56;10.53;;;3.60;;
72235;SDS011;60146;52.498;13.462;2023-02-28T05:22:22;10.37;;;3.90;;
72235;SDS011;60146;52.498;13.462;2023-02-28T05:24:47;11.63;;;4.03;;
72235;SDS011;60146;52.498;13.462;2023-02-28T05:27:12;10.73;;;3.80;;
72235;SDS011;60146;52.498;13.462;2023-02-28T05:29:37;15.17;;;4.33;;
72235;SDS011;60146;52.498;13.462;2023-02-28T05:32:10;10.57;;;4.93;;
72235;SDS011;60146;52.498;13.462;2023-02-28T05:34:37;11.33;;;4.03;;
72235;SDS011;60146;52.498;13.462;2023-02-28T05:37:02;12.57;;;5.30;;
72235;SDS011;60146;52.498;13.462;2023-02-28T05:39:28;11.90;;;4.63;;
72235;SDS011;60146;52.498;13.462;2023-02-28T05:41:53;12.43;;;4.17;;
72235;SDS011;60146;52.498;13.462;2023-02-28T05:44:18;15.10;;;4.53;;
72235;SDS011;60146;52.498;13.462;2023-02-28T05:46:43;10.33;;;4.10;;
72235;SDS011;60146;52.498;13.462;2023-02-28T05:49:08;9.53;;;4.03;;
72235;SDS011;60146;52.498;13.462;2023-02-28T05:51:34;11.00;;;4.30;;
72235;SDS011;60146;52.498;13.462;2023-02-28T05:54:01;12.40;;;4.20;;
72235;SDS011;60146;52.498;13.462;2023-02-28T05:56:26;12.60;;;3.87;;
72235;SDS011;60146;52.498;13.462;2023-02-28T05:58:51;11.93;;;3.87;;
72235;SDS011;60146;52.498;13.462;2023-02-28T06:04:01;9.97;;;3.90;;
72235;SDS011;60146;52.498;13.462;2023-02-28T06:06:27;12.30;;;4.30;;
72235;SDS011;60146;52.498;13.462;2023-02-28T06:08:52;8.40;;;3.70;;
72235;SDS011;60146;52.498;13.462;2023-02-28T06:11:18;11.17;;;3.90;;
72235;SDS011;60146;52.498;13.462;2023-02-28T06:13:45;11.20;;;3.67;;
72235;SDS011;60146;52.498;13.462;2023-02-28T06:16:10;11.97;;;4.10;;
72235;SDS011;60146;52.498;13.462;2023-02-28T06:18:36;10.60;;;4.30;;
72235;SDS011;60146;52.498;13.462;2023-02-28T06:21:01;9.13;;;3.70;;
72235;SDS011;60146;52.498;13.462;2023-02-28T06:23:26;16.73;;;4.23;;
72235;SDS011;60146;52.498;13.462;2023-02-28T06:25:52;12.87;;;4.03;;
72235;SDS011;60146;52.498;13.462;2023-02-28T06:28:18;10.03;;;4.00;;
72235;SDS011;60146;52.498;13.462;2023-02-28T06:30:43;11.07;;;3.67;;
72235;SDS011;60146;52.498;13.462;2023-02-28T06:33:08;9.93;;;4.13;;
72235;SDS011;60146;52.498;13.462;2023-02-28T06:35:34;10.53;;;4.47;;
72235;SDS011;60146;52.498;13.462;2023-02-28T06:37:59;12.77;;;5.13;;
72235;SDS011;60146;52.498;13.462;2023-02-28T06:40:24;9.57;;;4.23;;
72235;SDS011;60146;52.498;13.462;2023-02-28T06:42:49;12.27;;;4.60;;
72235;SDS011;60146;52.498;13.462;2023-02-28T06:45:15;15.20;;;5.77;;
72235;SDS011;60146;52.498;13.462;2023-02-28T06:47:40;9.63;;;4.93;;
72235;SDS011;60146;52.498;13.462;2023-02-28T06:50:06;15.97;;;5.50;;
72235;SDS011;60146;52.498;13.462;2023-02-28T06:52:35;14.00;;;4.80;;
72235;SDS011;60146;52.498;13.462;2023-02-28T06:55:04;12.67;;;4.77;;
72235;SDS011;60146;52.498;13.462;2023-02-28T06:57:29;14.53;;;5.23;;
72235;SDS011;60146;52.498;13.462;2023-02-28T06:59:58;11.97;;;4.77;;
72235;SDS011;60146;52.498;13.462;2023-02-28T07:02:24;15.97;;;4.97;;
72235;SDS011;60146;52.498;13.462;2023-02-28T07:04:50;13.10;;;5.10;;
72235;SDS011;60146;52.498;13.462;2023-02-28T07:07:15;14.53;;;5.57;;
72235;SDS011;60146;52.498;13.462;2023-02-28T07:09:40;13.67;;;5.07;;
72235;SDS011;60146;52.498;13.462;2023-02-28T07:12:05;12.13;;;4.70;;
72235;SDS011;60146;52.498;13.462;2023-02-28T07:14:31;12.87;;;4.63;;
72235;SDS011;60146;52.498;13.462;2023-02-28T07:16:56;14.23;;;4.83;;
72235;SDS011;60146;52.498;13.462;2023-02-28T07:19:22;10.80;;;4.50;;
72235;SDS011;60146;52.498;13.462;2023-02-28T07:21:50;15.27;;;4.83;;
72235;SDS011;60146;52.498;13.462;2023-02-28T07:24:15;16.77;;;4.60;;
72235;SDS011;60146;52.498;13.462;2023-02-28T07:26:42;13.67;;;4.37;;
72235;SDS011;60146;52.498;13.462;2023-02-28T07:29:08;13.57;;;5.23;;
72235;SDS011;60146;52.498;13.462;2023-02-28T07:31:33;11.60;;;4.80;;
72235;SDS011;60146;52.498;13.462;2023-02-28T07:33:58;13.17;;;4.30;;
72235;SDS011;60146;52.498;13.462;2023-02-28T07:36:23;16.67;;;4.87;;
72235;SDS011;60146;52.498;13.462;2023-02-28T07:38:49;18.37;;;4.73;;
72235;SDS011;60146;52.498;13.462;2023-02-28T07:41:19;19.33;;;4.97;;
72235;SDS011;60146;52.498;13.462;2023-02-28T07:43:45;14.45;;;4.50;;
72235;SDS011;60146;52.498;13.462;2023-02-28T07:46:11;29.37;;;5.20;;
72235;SDS011;60146;52.498;13.462;2023-02-28T07:48:43;24.40;;;6.07;;
72235;SDS011;60146;52.498;13.462;2023-02-28T07:51:08;18.63;;;4.50;;
72235;SDS011;60146;52.498;13.462;2023-02-28T07:53:34;15.33;;;4.47;;
72235;SDS011;60146;52.498;13.462;2023-02-28T07:56:00;19.93;;;4.80;;
72235;SDS011;60146;52.498;13.462;2023-02-28T07:58:26;19.07;;;4.50;;
72235;SDS011;60146;52.498;13.462;2023-02-28T08:00:52;10.43;;;3.17;;
72235;SDS011;60146;52.498;13.462;2023-02-28T08:03:18;11.63;;;3.80;;
72235;SDS011;60146;52.498;13.462;2023-02-28T08:05:43;10.33;;;3.63;;
72235;SDS011;60146;52.498;13.462;2023-02-28T08:08:09;11.57;;;3.03;;
72235;SDS011;60146;52.498;13.462;2023-02-28T08:10:34;15.13;;;4.00;;
72235;SDS011;60146;52.498;13.462;2023-02-28T08:12:59;32.70;;;4.80;;
72235;SDS011;60146;52.498;13.462;2023-02-28T08:15:25;11.10;;;2.80;;
72235;SDS011;60146;52.498;13.462;2023-02-28T08:17:50;17.13;;;3.47;;
72235;SDS011;60146;52.498;13.462;2023-02-28T08:20:15;14.27;;;3.00;;
72235;SDS011;60146;52.498;13.462;2023-02-28T08:22:40;11.70;;;2.83;;
72235;SDS011;60146;52.498;13.462;2023-02-28T08:25:07;12.23;;;3.07;;
72235;SDS011;60146;52.498;13.462;2023-02-28T08:27:32;11.77;;;3.37;;
72235;SDS011;60146;52.498;13.462;2023-02-28T08:29:58;16.00;;;3.30;;
72235;SDS011;60146;52.498;13.462;2023-02-28T08:32:23;12.80;;;3.20;;
72235;SDS011;60146;52.498;13.462;2023-02-28T08:34:48;22.13;;;4.30;;
72235;SDS011;60146;52.498;13.462;2023-02-28T08:37:13;7.03;;;2.63;;
72235;SDS011;60146;52.498;13.462;2023-02-28T08:39:39;6.70;;;2.53;;
72235;SDS011;60146;52.498;13.462;2023-02-28T08:42:05;13.07;;;2.90;;
72235;SDS011;60146;52.498;13.462;2023-02-28T08:44:30;10.07;;;2.30;;
72235;SDS011;60146;52.498;13.462;2023-02-28T08:46:56;6.30;;;2.20;;
72235;SDS011;60146;52.498;13.462;2023-02-28T08:49:21;7.80;;;2.47;;
72235;SDS011;60146;52.498;13.462;2023-02-28T08:51:46;5.10;;;2.30;;
72235;SDS011;60146;52.498;13.462;2023-02-28T08:54:11;15.27;;;3.13;;
72235;SDS011;60146;52.498;13.462;2023-02-28T08:56:37;7.73;;;2.47;;
72235;SDS011;60146;52.498;13.462;2023-02-28T08:59:02;14.13;;;3.03;;
72235;SDS011;60146;52.498;13.462;2023-02-28T09:01:28;8.53;;;2.30;;
72235;SDS011;60146;52.498;13.462;2023-02-28T09:03:54;9.47;;;3.10;;
72235;SDS011;60146;52.498;13.462;2023-02-28T09:06:21;9.50;;;2.20;;
72235;SDS011;60146;52.498;13.462;2023-02-28T09:08:46;8.47;;;2.90;;
72235;SDS011;60146;52.498;13.462;2023-02-28T09:11:11;2.83;;;1.60;;
72235;SDS011;60146;52.498;13.462;2023-02-28T09:13:37;2.50;;;1.60;;
72235;SDS011;60146;52.498;13.462;2023-02-28T09:16:03;8.63;;;2.20;;
72235;SDS011;60146;52.498;13.462;2023-02-28T09:18:33;7.20;;;2.20;;
72235;SDS011;60146;52.498;13.462;2023-02-28T09:20:59;18.30;;;2.15;;
72235;SDS011;60146;52.498;13.462;2023-02-28T09:23:24;4.80;;;1.50;;
72235;SDS011;60146;52.498;13.462;2023-02-28T09:25:54;6.33;;;1.70;;
72235;SDS011;60146;52.498;13.462;2023-02-28T09:28:19;20.55;;;2.58;;
72235;SDS011;60146;52.498;13.462;2023-02-28T09:30:45;6.97;;;1.50;;
72235;SDS011;60146;52.498;13.462;2023-02-28T09:33:11;38.92;;;3.65;;
72235;SDS011;60146;52.498;13.462;2023-02-28T09:35:36;16.52;;;2.95;;
72235;SDS011;60146;52.498;13.462;2023-02-28T09:38:02;11.15;;;2.42;;
72235;SDS011;60146;52.498;13.462;2023-02-28T09:40:27;8.18;;;1.63;;
72235;SDS011;60146;52.498;13.462;2023-02-28T09:42:53;8.50;;;1.92;;
72235;SDS011;60146;52.498;13.462;2023-02-28T09:47:45;35.53;;;3.75;;
72235;SDS011;60146;52.498;13.462;2023-02-28T09:50:23;8.15;;;1.92;;
72235;SDS011;60146;52.498;13.462;2023-02-28T09:52:53;5.50;;;2.05;;
72235;SDS011;60146;52.498;13.462;2023-02-28T09:57:44;7.15;;;1.70;;
72235;SDS011;60146;52.498;13.462;2023-02-28T10:05:20;3.88;;;1.40;;
72235;SDS011;60146;52.498;13.462;2023-02-28T10:10:20;4.80;;;1.65;;
72235;SDS011;60146;52.498;13.462;2023-02-28T10:12:47;16.38;;;2.83;;
72235;SDS011;60146;52.498;13.462;2023-02-28T10:15:15;5.05;;;1.67;;
72235;SDS011;60146;52.498;13.462;2023-02-28T10:17:42;14.32;;;2.70;;
72235;SDS011;60146;52.498;13.462;2023-02-28T10:20:12;3.15;;;1.50;;
72235;SDS011;60146;52.498;13.462;2023-02-28T10:25:05;5.38;;;1.58;;
72235;SDS011;60146;52.498;13.462;2023-02-28T10:27:40;4.13;;;1.63;;
72235;SDS011;60146;52.498;13.462;2023-02-28T10:30:05;7.82;;;1.98;;
72235;SDS011;60146;52.498;13.462;2023-02-28T10:32:32;6.32;;;1.70;;
72235;SDS011;60146;52.498;13.462;2023-02-28T10:35:14;6.40;;;1.75;;
72235;SDS011;60146;52.498;13.462;2023-02-28T10:37:41;8.02;;;1.92;;
72235;SDS011;60146;52.498;13.462;2023-02-28T10:40:11;4.57;;;1.83;;
72235;SDS011;60146;52.498;13.462;2023-02-28T10:45:20;3.90;;;1.25;;
72235;SDS011;60146;52.498;13.462;2023-02-28T10:55:56;9.13;;;2.20;;
72235;SDS011;60146;52.498;13.462;2023-02-28T10:58:25;3.75;;;1.98;;
72235;SDS011;60146;52.498;13.462;2023-02-28T11:00:51;3.53;;;1.90;;
72235;SDS011;60146;52.498;13.462;2023-02-28T11:03:31;6.53;;;1.88;;
72235;SDS011;60146;52.498;13.462;2023-02-28T11:05:57;6.88;;;1.80;;
72235;SDS011;60146;52.498;13.462;2023-02-28T11:08:22;7.47;;;2.20;;
72235;SDS011;60146;52.498;13.462;2023-02-28T11:10:54;3.25;;;2.00;;
72235;SDS011;60146;52.498;13.462;2023-02-28T11:13:21;16.90;;;3.13;;
72235;SDS011;60146;52.498;13.462;2023-02-28T11:15:54;12.82;;;2.95;;
72235;SDS011;60146;52.498;13.462;2023-02-28T11:20:48;6.00;;;2.10;;
72235;SDS011;60146;52.498;13.462;2023-02-28T11:23:15;6.20;;;2.40;;
72235;SDS011;60146;52.498;13.462;2023-02-28T11:25:40;5.38;;;2.42;;
72235;SDS011;60146;52.498;13.462;2023-02-28T11:28:33;7.88;;;2.70;;
72235;SDS011;60146;52.498;13.462;2023-02-28T11:31:05;9.27;;;2.40;;
72235;SDS011;60146;52.498;13.462;2023-02-28T11:33:41;7.68;;;2.78;;
72235;SDS011;60146;52.498;13.462;2023-02-28T11:36:14;16.25;;;3.10;;
72235;SDS011;60146;52.498;13.462;2023-02-28T11:38:40;6.45;;;2.58;;
72235;SDS011;60146;52.498;13.462;2023-02-28T11:46:31;2.90;;;1.90;;
72235;SDS011;60146;52.498;13.462;2023-02-28T11:51:28;4.13;;;2.47;;
72235;SDS011;60146;52.498;13.462;2023-02-28T11:56:38;7.40;;;2.42;;
72235;SDS011;60146;52.498;13.462;2023-02-28T11:59:10;3.72;;;2.17;;
72235;SDS011;60146;52.498;13.462;2023-02-28T12:07:08;4.55;;;2.38;;
72235;SDS011;60146;52.498;13.462;2023-02-28T12:22:59;8.60;;;2.50;;
72235;SDS011;60146;52.498;13.462;2023-02-28T12:25:48;15.63;;;5.90;;
72235;SDS011;60146;52.498;13.462;2023-02-28T12:28:16;5.15;;;1.90;;
72235;SDS011;60146;52.498;13.462;2023-02-28T12:30:54;6.20;;;2.22;;
72235;SDS011;60146;52.498;13.462;2023-02-28T12:33:22;4.18;;;1.90;;
72235;SDS011;60146;52.498;13.462;2023-02-28T12:35:51;3.03;;;1.70;;
72235;SDS011;60146;52.498;13.462;2023-02-28T12:41:05;19.40;;;3.20;;
72235;SDS011;60146;52.498;13.462;2023-02-28T12:43:38;10.43;;;2.20;;
72235;SDS011;60146;52.498;13.462;2023-02-28T12:46:29;11.60;;;2.75;;
72235;SDS011;60146;52.498;13.462;2023-02-28T12:49:05;6.38;;;2.10;;
72235;SDS011;60146;52.498;13.462;2023-02-28T12:51:31;2.55;;;1.65;;
72235;SDS011;60146;52.498;13.462;2023-02-28T12:54:00;37.55;;;4.30;;
72235;SDS011;60146;52.498;13.462;2023-02-28T12:59:10;2.92;;;2.00;;
72235;SDS011;60146;52.498;13.462;2023-02-28T13:09:29;27.60;;;3.97;;
72235;SDS011;60146;52.498;13.462;2023-02-28T13:11:55;9.15;;;2.42;;
72235;SDS011;60146;52.498;13.462;2023-02-28T13:16:47;7.57;;;2.17;;
72235;SDS011;60146;52.498;13.462;2023-02-28T13:19:16;7.88;;;2.22;;
72235;SDS011;60146;52.498;13.462;2023-02-28T13:21:43;19.33;;;2.60;;
72235;SDS011;60146;52.498;13.462;2023-02-28T13:24:10;11.52;;;2.42;;
72235;SDS011;60146;52.498;13.462;2023-02-28T13:29:02;4.28;;;2.00;;
72235;SDS011;60146;52.498;13.462;2023-02-28T13:31:29;5.20;;;2.00;;
72235;SDS011;60146;52.498;13.462;2023-02-28T13:36:23;14.52;;;2.65;;
72235;SDS011;60146;52.498;13.462;2023-02-28T13:38:53;7.68;;;2.53;;
72235;SDS011;60146;52.498;13.462;2023-02-28T13:44:14;5.80;;;2.38;;
72235;SDS011;60146;52.498;13.462;2023-02-28T13:51:46;7.10;;;1.92;;
72235;SDS011;60146;52.498;13.462;2023-02-28T13:54:57;13.23;;;2.38;;
72235;SDS011;60146;52.498;13.462;2023-02-28T13:59:47;5.65;;;2.17;;
72235;SDS011;60146;52.498;13.462;2023-02-28T14:05:05;6.15;;;2.00;;
72235;SDS011;60146;52.498;13.462;2023-02-28T14:07:32;6.72;;;2.10;;
72235;SDS011;60146;52.498;13.462;2023-02-28T14:09:59;14.82;;;2.83;;
72235;SDS011;60146;52.498;13.462;2023-02-28T14:17:57;4.75;;;2.20;;
72235;SDS011;60146;52.498;13.462;2023-02-28T14:20:26;4.78;;;2.22;;
72235;SDS011;60146;52.498;13.462;2023-02-28T14:23:02;11.55;;;2.88;;
72235;SDS011;60146;52.498;13.462;2023-02-28T14:31:06;4.97;;;2.13;;
72235;SDS011;60146;52.498;13.462;2023-02-28T14:38:29;5.73;;;2.30;;
72235;SDS011;60146;52.498;13.462;2023-02-28T14:40:56;9.93;;;3.60;;
72235;SDS011;60146;52.498;13.462;2023-02-28T14:43:23;8.00;;;2.20;;
72235;SDS011;60146;52.498;13.462;2023-02-28T14:45:49;7.30;;;2.63;;
72235;SDS011;60146;52.498;13.462;2023-02-28T14:48:15;5.23;;;2.40;;
72235;SDS011;60146;52.498;13.462;2023-02-28T14:50:40;5.57;;;2.37;;
72235;SDS011;60146;52.498;13.462;2023-02-28T14:53:15;11.43;;;2.80;;
72235;SDS011;60146;52.498;13.462;2023-02-28T14:55:44;8.23;;;2.80;;
72235;SDS011;60146;52.498;13.462;2023-02-28T14:58:31;8.40;;;2.80;;
72235;SDS011;60146;52.498;13.462;2023-02-28T15:00:56;8.50;;;2.90;;
72235;SDS011;60146;52.498;13.462;2023-02-28T15:03:23;8.50;;;3.37;;
72235;SDS011;60146;52.498;13.462;2023-02-28T15:06:12;6.33;;;2.37;;
72235;SDS011;60146;52.498;13.462;2023-02-28T15:08:36;5.27;;;2.40;;
72235;SDS011;60146;52.498;13.462;2023-02-28T15:11:02;7.57;;;2.63;;
72235;SDS011;60146;52.498;13.462;2023-02-28T15:16:25;7.53;;;2.40;;
72235;SDS011;60146;52.498;13.462;2023-02-28T15:21:21;11.83;;;2.70;;
72235;SDS011;60146;52.498;13.462;2023-02-28T15:26:22;6.23;;;2.40;;
72235;SDS011;60146;52.498;13.462;2023-02-28T15:28:59;11.00;;;2.43;;
72235;SDS011;60146;52.498;13.462;2023-02-28T15:31:29;5.83;;;2.53;;
72235;SDS011;60146;52.498;13.462;2023-02-28T15:33:57;11.13;;;2.53;;
72235;SDS011;60146;52.498;13.462;2023-02-28T15:36:28;12.70;;;3.07;;
72235;SDS011;60146;52.498;13.462;2023-02-28T15:38:54;6.73;;;1.97;;
72235;SDS011;60146;52.498;13.462;2023-02-28T15:41:36;6.70;;;2.70;;
72235;SDS011;60146;52.498;13.462;2023-02-28T15:46:59;5.73;;;2.10;;
72235;SDS011;60146;52.498;13.462;2023-02-28T15:49:26;8.90;;;3.40;;
72235;SDS011;60146;52.498;13.462;2023-02-28T15:51:52;10.97;;;3.00;;
72235;SDS011;60146;52.498;13.462;2023-02-28T15:54:23;6.67;;;2.80;;
72235;SDS011;60146;52.498;13.462;2023-02-28T15:56:54;5.40;;;2.20;;
72235;SDS011;60146;52.498;13.462;2023-02-28T15:59:25;8.33;;;2.20;;
72235;SDS011;60146;52.498;13.462;2023-02-28T16:04:35;5.73;;;2.27;;
72235;SDS011;60146;52.498;13.462;2023-02-28T16:07:02;7.03;;;2.00;;
72235;SDS011;60146;52.498;13.462;2023-02-28T16:09:27;6.33;;;2.17;;
72235;SDS011;60146;52.498;13.462;2023-02-28T16:11:55;8.87;;;2.53;;
72235;SDS011;60146;52.498;13.462;2023-02-28T16:14:21;11.50;;;2.80;;
72235;SDS011;60146;52.498;13.462;2023-02-28T16:16:51;4.53;;;2.20;;
72235;SDS011;60146;52.498;13.462;2023-02-28T16:19:17;3.97;;;2.20;;
72235;SDS011;60146;52.498;13.462;2023-02-28T16:21:43;5.97;;;2.27;;
72235;SDS011;60146;52.498;13.462;2023-02-28T16:24:08;6.30;;;2.30;;
72235;SDS011;60146;52.498;13.462;2023-02-28T16:26:33;15.40;;;2.33;;
72235;SDS011;60146;52.498;13.462;2023-02-28T16:29:00;5.07;;;2.03;;
72235;SDS011;60146;52.498;13.462;2023-02-28T16:31:25;5.30;;;2.30;;
72235;SDS011;60146;52.498;13.462;2023-02-28T16:33:50;5.77;;;2.67;;
72235;SDS011;60146;52.498;13.462;2023-02-28T16:36:17;5.47;;;2.30;;
72235;SDS011;60146;52.498;13.462;2023-02-28T16:38:42;6.30;;;2.40;;
72235;SDS011;60146;52.498;13.462;2023-02-28T16:41:08;5.97;;;2.40;;
72235;SDS011;60146;52.498;13.462;2023-02-28T16:43:36;5.73;;;2.50;;
72235;SDS011;60146;52.498;13.462;2023-02-28T16:46:03;5.23;;;2.83;;
72235;SDS011;60146;52.498;13.462;2023-02-28T16:48:28;9.73;;;3.40;;
72235;SDS011;60146;52.498;13.462;2023-02-28T16:50:55;10.17;;;3.13;;
72235;SDS011;60146;52.498;13.462;2023-02-28T16:53:20;6.67;;;2.80;;
72235;SDS011;60146;52.498;13.462;2023-02-28T16:55:46;7.77;;;2.90;;
72235;SDS011;60146;52.498;13.462;2023-02-28T16:58:15;6.93;;;2.73;;
72235;SDS011;60146;52.498;13.462;2023-02-28T17:00:41;6.70;;;2.67;;
72235;SDS011;60146;52.498;13.462;2023-02-28T17:03:19;11.87;;;3.00;;
72235;SDS011;60146;52.498;13.462;2023-02-28T17:05:45;7.67;;;2.43;;
72235;SDS011;60146;52.498;13.462;2023-02-28T17:08:11;9.43;;;2.60;;
72235;SDS011;60146;52.498;13.462;2023-02-28T17:10:36;10.53;;;2.67;;
72235;SDS011;60146;52.498;13.462;2023-02-28T17:13:01;12.50;;;3.13;;
72235;SDS011;60146;52.498;13.462;2023-02-28T17:15:27;14.37;;;3.30;;
72235;SDS011;60146;52.498;13.462;2023-02-28T17:17:52;8.90;;;3.40;;
72235;SDS011;60146;52.498;13.462;2023-02-28T17:20:19;13.27;;;3.80;;
72235;SDS011;60146;52.498;13.462;2023-02-28T17:22:49;13.93;;;3.63;;
72235;SDS011;60146;52.498;13.462;2023-02-28T17:25:14;11.67;;;3.17;;
72235;SDS011;60146;52.498;13.462;2023-02-28T17:27:39;6.97;;;2.50;;
72235;SDS011;60146;52.498;13.462;2023-02-28T17:30:10;10.77;;;3.30;;
72235;SDS011;60146;52.498;13.462;2023-02-28T17:32:38;11.30;;;3.27;;
72235;SDS011;60146;52.498;13.462;2023-02-28T17:35:03;15.20;;;4.03;;
72235;SDS011;60146;52.498;13.462;2023-02-28T17:37:29;7.47;;;3.10;;
72235;SDS011;60146;52.498;13.462;2023-02-28T17:39:55;6.10;;;3.20;;
72235;SDS011;60146;52.498;13.462;2023-02-28T17:42:20;6.40;;;2.90;;
72235;SDS011;60146;52.498;13.462;2023-02-28T17:44:45;9.43;;;2.63;;
72235;SDS011;60146;52.498;13.462;2023-02-28T17:47:11;10.67;;;3.30;;
72235;SDS011;60146;52.498;13.462;2023-02-28T17:49:36;8.50;;;3.10;;
72235;SDS011;60146;52.498;13.462;2023-02-28T17:52:02;6.03;;;2.87;;
72235;SDS011;60146;52.498;13.462;2023-02-28T17:54:27;7.70;;;3.40;;
72235;SDS011;60146;52.498;13.462;2023-02-28T17:56:52;11.50;;;3.47;;
72235;SDS011;60146;52.498;13.462;2023-02-28T17:59:17;8.53;;;3.50;;
72235;SDS011;60146;52.498;13.462;2023-02-28T18:01:43;11.00;;;3.87;;
72235;SDS011;60146;52.498;13.462;2023-02-28T18:04:08;12.03;;;4.00;;
72235;SDS011;60146;52.498;13.462;2023-02-28T18:06:35;10.53;;;5.13;;
72235;SDS011;60146;52.498;13.462;2023-02-28T18:09:01;13.83;;;4.77;;
72235;SDS011;60146;52.498;13.462;2023-02-28T18:11:26;11.33;;;4.70;;